createdAt,value
2019-01-15T00:01:23.428Z,98573.41
2019-01-15T00:03:53.879Z,98578.98
2019-01-15T00:06:24.377Z,98580.00
2019-01-15T00:08:54.906Z,98585.09
2019-01-15T00:11:25.362Z,98578.98
2019-01-15T00:13:55.902Z,98576.70
2019-01-15T00:16:26.668Z,98579.91
2019-01-15T00:18:57.818Z,98582.58
2019-01-15T00:21:28.358Z,98575.63
2019-01-15T00:23:59.117Z,98574.25
2019-01-15T00:26:29.660Z,98574.98
2019-01-15T00:29:00.092Z,98568.63
2019-01-15T00:31:30.758Z,98576.63
2019-01-15T00:34:01.329Z,98579.16
2019-01-15T00:36:31.825Z,98584.00
2019-01-15T00:39:02.698Z,98578.55
2019-01-15T00:41:33.139Z,98582.36
2019-01-15T00:44:03.687Z,98587.31
2019-01-15T00:46:34.688Z,98592.15
2019-01-15T00:49:05.209Z,98597.36
2019-01-15T00:51:35.777Z,98606.50
2019-01-15T00:54:06.816Z,98606.50
2019-01-15T00:56:37.408Z,98609.58
2019-01-15T00:59:08.240Z,98607.91
2019-01-15T01:01:38.909Z,98613.16
2019-01-15T01:04:09.578Z,98613.66
2019-01-15T01:06:40.218Z,98623.33
2019-01-15T01:09:12.501Z,98622.05
2019-01-15T01:11:43.117Z,98623.83
2019-01-15T01:14:14.058Z,98615.05
2019-01-15T01:16:44.633Z,98618.98
2019-01-15T01:19:15.498Z,98621.05
2019-01-15T01:21:46.169Z,98617.73
2019-01-15T01:24:17.578Z,98628.31
2019-01-15T01:26:48.308Z,98623.86
2019-01-15T01:29:18.967Z,98622.11
2019-01-15T01:31:49.717Z,98627.44
2019-01-15T01:34:20.319Z,98614.13
2019-01-15T01:36:50.947Z,98625.39
2019-01-15T01:39:21.619Z,98628.70
2019-01-15T01:41:52.358Z,98625.80
2019-01-15T01:44:22.977Z,98626.16
2019-01-15T01:46:53.567Z,98626.83
2019-01-15T01:49:23.992Z,98625.39
2019-01-15T01:51:54.552Z,98625.02
2019-01-15T01:54:25.431Z,98630.23
2019-01-15T01:56:56.017Z,98622.23
2019-01-15T01:59:26.697Z,98624.55
2019-01-15T02:01:57.298Z,98626.60
2019-01-15T02:04:27.897Z,98628.85
2019-01-15T02:06:58.553Z,98627.98
2019-01-15T02:09:29.620Z,98624.30
2019-01-15T02:12:00.207Z,98632.42
2019-01-15T02:14:30.841Z,98623.16
2019-01-15T02:17:01.807Z,98628.38
2019-01-15T02:19:32.196Z,98626.22
2019-01-15T02:22:02.778Z,98627.48
2019-01-15T02:24:33.887Z,98629.89
2019-01-15T02:27:07.059Z,98631.16
2019-01-15T02:29:37.727Z,98634.13
2019-01-15T02:32:08.230Z,98624.22
2019-01-15T02:34:38.727Z,98626.73
2019-01-15T02:37:09.423Z,98636.23
2019-01-15T02:39:40.007Z,98620.10
2019-01-15T02:42:10.510Z,98618.70
2019-01-15T02:44:41.069Z,98611.36
2019-01-15T02:47:11.572Z,98607.27
2019-01-15T02:49:42.013Z,98613.51
2019-01-15T02:52:12.914Z,98606.02
2019-01-15T02:54:43.418Z,98610.45
2019-01-15T02:57:14.057Z,98598.91
2019-01-15T02:59:44.734Z,98594.70
2019-01-15T03:02:15.219Z,98603.34
2019-01-15T03:04:45.798Z,98593.71
2019-01-15T03:07:16.417Z,98593.71
2019-01-15T03:09:46.988Z,98593.19
2019-01-15T03:12:17.406Z,98588.89
2019-01-15T03:14:47.934Z,98588.39
2019-01-15T03:17:18.449Z,98599.05
2019-01-15T03:19:49.278Z,98599.95
2019-01-15T03:22:20.177Z,98602.86
2019-01-15T03:24:50.761Z,98606.55
2019-01-15T03:27:21.332Z,98600.31
2019-01-15T03:29:51.896Z,98595.34
2019-01-15T03:32:22.549Z,98597.61
2019-01-15T03:34:52.987Z,98606.63
2019-01-15T03:37:23.718Z,98604.81
2019-01-15T03:39:54.258Z,98592.59
2019-01-15T03:42:24.759Z,98601.47
2019-01-15T03:44:56.128Z,98608.80
2019-01-15T03:47:26.598Z,98604.16
2019-01-15T03:49:57.074Z,98610.77
2019-01-15T03:52:27.703Z,98617.30
2019-01-15T03:54:58.132Z,98607.77
2019-01-15T03:57:28.622Z,98618.17
2019-01-15T03:59:59.179Z,98618.94
2019-01-15T04:02:29.767Z,98617.71
2019-01-15T04:05:00.763Z,98620.36
2019-01-15T04:07:31.516Z,98625.31
2019-01-15T04:10:02.242Z,98632.69
2019-01-15T04:12:32.683Z,98629.13
2019-01-15T04:15:03.250Z,98628.97
2019-01-15T04:17:33.788Z,98636.13
2019-01-15T04:20:05.715Z,98628.80
2019-01-15T04:22:36.294Z,98635.05
2019-01-15T04:25:08.125Z,98636.82
2019-01-15T04:27:38.637Z,98636.58
2019-01-15T04:30:13.788Z,98648.79
2019-01-15T04:32:44.282Z,98648.33
2019-01-15T04:35:14.884Z,98652.02
2019-01-15T04:37:45.434Z,98645.51
2019-01-15T04:40:20.403Z,98657.00
2019-01-15T04:42:51.127Z,98656.36
2019-01-15T04:45:24.042Z,98646.08
2019-01-15T04:47:54.597Z,98661.17
2019-01-15T04:50:25.148Z,98654.97
2019-01-15T04:53:01.095Z,98648.62
2019-01-15T04:55:31.878Z,98657.77
2019-01-15T04:58:02.529Z,98660.84
2019-01-15T05:00:33.201Z,98664.41
2019-01-15T05:03:07.403Z,98659.44
2019-01-15T05:05:37.998Z,98659.02
2019-01-15T05:08:09.040Z,98673.97
2019-01-15T05:10:41.551Z,98674.47
2019-01-15T05:13:11.948Z,98672.17
2019-01-15T05:15:42.742Z,98681.77
2019-01-15T05:18:15.402Z,98677.36
2019-01-15T05:20:45.810Z,98674.27
2019-01-15T05:23:18.334Z,98682.00
2019-01-15T05:25:48.909Z,98684.66
2019-01-15T05:28:19.593Z,98672.27
2019-01-15T05:30:50.433Z,98673.13
2019-01-15T05:33:21.067Z,98681.66
2019-01-15T05:35:51.599Z,98675.67
2019-01-15T05:38:22.168Z,98680.38
2019-01-15T05:40:55.452Z,98676.33
2019-01-15T05:43:26.069Z,98670.22
2019-01-15T05:45:56.616Z,98677.11
2019-01-15T05:48:33.779Z,98683.72
2019-01-15T05:51:15.515Z,98683.97
2019-01-15T05:53:45.957Z,98682.70
2019-01-15T05:56:16.443Z,98686.39
2019-01-15T05:58:47.119Z,98680.16
2019-01-15T06:01:18.657Z,98689.19
2019-01-15T06:03:49.293Z,98694.28
2019-01-15T06:06:19.810Z,98699.50
2019-01-15T06:08:50.413Z,98692.41
2019-01-15T06:11:21.010Z,98697.37
2019-01-15T06:13:51.727Z,98698.28
2019-01-15T06:16:22.349Z,98700.52
2019-01-15T06:18:52.847Z,98696.95
2019-01-15T06:21:23.418Z,98692.73
2019-01-15T06:23:54.512Z,98703.30
2019-01-15T06:26:24.938Z,98705.59
2019-01-15T06:28:55.865Z,98708.16
2019-01-15T06:31:26.466Z,98699.56
2019-01-15T06:33:57.053Z,98706.67
2019-01-15T06:36:27.563Z,98703.89
2019-01-15T06:38:58.097Z,98701.60
2019-01-15T06:41:28.812Z,98707.34
2019-01-15T06:43:59.207Z,98709.41
2019-01-15T06:46:30.381Z,98699.36
2019-01-15T06:49:00.967Z,98707.78
2019-01-15T06:51:31.658Z,98710.05
2019-01-15T06:54:02.334Z,98714.76
2019-01-15T06:56:32.845Z,98721.00
2019-01-15T06:59:03.340Z,98710.84
2019-01-15T07:01:33.840Z,98707.80
2019-01-15T07:04:04.599Z,98711.37
2019-01-15T07:06:35.018Z,98718.23
2019-01-15T07:09:09.437Z,98723.97
2019-01-15T07:11:40.003Z,98725.12
2019-01-15T07:14:10.687Z,98731.50
2019-01-15T07:16:41.787Z,98725.39
2019-01-15T07:19:12.489Z,98728.84
2019-01-15T07:21:43.018Z,98723.62
2019-01-15T07:24:14.128Z,98730.24
2019-01-15T07:26:44.718Z,98728.47
2019-01-15T07:29:15.562Z,98717.52
2019-01-15T07:31:46.030Z,98729.99
2019-01-15T07:34:16.653Z,98737.09
2019-01-15T07:36:47.220Z,98727.57
2019-01-15T07:39:17.850Z,98734.97
2019-01-15T07:41:48.362Z,98742.60
2019-01-15T07:44:19.052Z,98739.02
2019-01-15T07:46:49.527Z,98746.53
2019-01-15T07:49:20.084Z,98745.73
2019-01-15T07:51:50.488Z,98745.48
2019-01-15T07:54:21.072Z,98749.25
2019-01-15T07:56:51.602Z,98754.31
2019-01-15T07:59:22.201Z,98745.52
2019-01-15T08:01:53.108Z,98746.55
2019-01-15T08:04:23.578Z,98752.54
2019-01-15T08:06:54.150Z,98736.25
2019-01-15T08:09:25.123Z,98739.41
2019-01-15T08:11:55.703Z,98747.33
2019-01-15T08:14:26.346Z,98749.34
2019-01-15T08:16:56.993Z,98749.20
2019-01-15T08:19:27.812Z,98749.45
2019-01-15T08:21:58.325Z,98757.32
2019-01-15T08:24:29.199Z,98760.89
2019-01-15T08:26:59.757Z,98756.71
2019-01-15T08:29:30.252Z,98765.50
2019-01-15T08:32:00.788Z,98755.08
2019-01-15T08:34:31.192Z,98746.92
2019-01-15T08:37:02.013Z,98743.87
2019-01-15T08:39:32.487Z,98737.79
2019-01-15T08:42:03.136Z,98727.61
2019-01-15T08:44:33.583Z,98734.52
2019-01-15T08:47:04.171Z,98733.00
2019-01-15T08:49:34.543Z,98737.69
2019-01-15T08:52:04.949Z,98738.34
2019-01-15T08:54:35.776Z,98722.34
2019-01-15T08:57:06.555Z,98728.42
2019-01-15T08:59:37.100Z,98722.84
2019-01-15T09:02:07.977Z,98721.09
2019-01-15T09:04:38.403Z,98724.00
2019-01-15T09:07:08.970Z,98706.59
2019-01-15T09:09:39.466Z,98703.03
2019-01-15T09:12:10.229Z,98703.53
2019-01-15T09:14:40.793Z,98708.49
2019-01-15T09:17:11.399Z,98692.97
2019-01-15T09:19:42.026Z,98690.06
2019-01-15T09:22:12.494Z,98683.94
2019-01-15T09:24:42.868Z,98686.48
2019-01-15T09:27:13.388Z,98669.69
2019-01-15T09:29:43.887Z,98658.87
2019-01-15T09:32:14.308Z,98664.09
2019-01-15T09:34:44.914Z,98658.74
2019-01-15T09:37:15.361Z,98651.48
2019-01-15T09:39:46.027Z,98648.42
2019-01-15T09:42:17.144Z,98648.56
2019-01-15T09:44:48.333Z,98648.55
2019-01-15T09:47:18.908Z,98646.00
2019-01-15T09:49:49.416Z,98633.39
2019-01-15T09:52:20.631Z,98631.34
2019-01-15T09:54:51.541Z,98636.69
2019-01-15T09:57:22.108Z,98626.88
2019-01-15T09:59:52.551Z,98630.45
2019-01-15T10:02:24.057Z,98630.56
2019-01-15T10:04:54.738Z,98620.87
2019-01-15T10:07:25.217Z,98616.18
2019-01-15T10:09:55.795Z,98609.16
2019-01-15T10:12:26.262Z,98590.95
2019-01-15T10:14:56.664Z,98605.20
2019-01-15T10:17:27.368Z,98602.13
2019-01-15T10:19:57.848Z,98606.70
2019-01-15T10:22:28.848Z,98595.63
2019-01-15T10:24:59.839Z,98599.08
2019-01-15T10:27:30.609Z,98601.98
2019-01-15T10:30:03.453Z,98592.92
2019-01-15T10:33:01.817Z,98583.77
2019-01-15T10:35:59.259Z,98599.06
2019-01-15T10:38:32.706Z,98592.69
2019-01-15T10:41:04.117Z,98592.44
2019-01-15T10:43:36.036Z,98600.08
2019-01-15T10:46:07.637Z,98592.83
2019-01-15T10:48:38.128Z,98592.20
2019-01-15T10:51:08.608Z,98590.28
2019-01-15T10:53:39.222Z,98600.35
2019-01-15T10:56:09.658Z,98601.64
2019-01-15T10:58:40.224Z,98601.17
2019-01-15T11:01:11.161Z,98598.20
2019-01-15T11:03:41.544Z,98607.25
2019-01-15T11:06:12.169Z,98596.27
2019-01-15T11:08:42.752Z,98597.28
2019-01-15T11:11:13.375Z,98611.68
2019-01-15T11:13:43.777Z,98609.41
2019-01-15T11:16:14.590Z,98608.35
2019-01-15T11:18:45.156Z,98605.02
2019-01-15T11:21:15.695Z,98611.02
2019-01-15T11:23:46.284Z,98602.47
2019-01-15T11:26:16.968Z,98613.45
2019-01-15T11:28:47.548Z,98599.16
2019-01-15T11:31:18.080Z,98611.25
2019-01-15T11:33:48.582Z,98594.45
2019-01-15T11:36:18.909Z,98594.22
2019-01-15T11:38:49.487Z,98585.77
2019-01-15T11:41:19.951Z,98587.80
2019-01-15T11:43:50.356Z,98580.94
2019-01-15T11:46:20.857Z,98579.59
2019-01-15T11:48:51.229Z,98579.48
2019-01-15T11:51:21.817Z,98593.52
2019-01-15T11:53:52.347Z,98579.73
2019-01-15T11:56:22.859Z,98589.01
2019-01-15T11:58:53.987Z,98582.14
2019-01-15T12:01:38.407Z,98568.88
2019-01-15T12:04:27.889Z,98582.14
2019-01-15T12:07:17.461Z,98568.62
2019-01-15T12:09:57.163Z,98581.83
2019-01-15T12:12:46.833Z,98571.26
2019-01-15T12:15:36.193Z,98577.83
2019-01-15T12:18:25.687Z,98575.69
2019-01-15T12:21:15.079Z,98564.33
2019-01-15T12:24:05.309Z,98575.69
2019-01-15T12:26:55.329Z,98577.22
2019-01-15T12:29:44.663Z,98576.47
2019-01-15T12:32:34.299Z,98582.98
2019-01-15T12:35:24.583Z,98582.81
2019-01-15T12:38:13.278Z,98588.14
2019-01-15T12:41:02.525Z,98577.83
2019-01-15T12:43:43.566Z,98585.83
2019-01-15T12:46:32.969Z,98579.16
2019-01-15T12:49:22.216Z,98575.14
2019-01-15T12:52:11.601Z,98577.91
2019-01-15T12:55:00.983Z,98584.55
2019-01-15T12:57:46.846Z,98586.58
2019-01-15T13:00:32.373Z,98588.29
2019-01-15T13:03:15.229Z,98588.81
2019-01-15T13:06:04.643Z,98583.51
2019-01-15T13:08:54.016Z,98586.95
2019-01-15T13:11:43.383Z,98585.73
2019-01-15T13:14:32.776Z,98587.01
2019-01-15T13:17:22.113Z,98583.53
2019-01-15T13:20:11.522Z,98590.54
2019-01-15T13:23:00.904Z,98590.80
2019-01-15T13:25:52.035Z,98587.50
2019-01-15T13:28:31.634Z,98588.66
2019-01-15T13:31:21.001Z,98585.23
2019-01-15T13:34:00.924Z,98590.33
2019-01-15T13:36:50.520Z,98593.92
2019-01-15T13:39:39.852Z,98585.47
2019-01-15T13:42:29.273Z,98596.33
2019-01-15T13:45:18.556Z,98598.99
2019-01-15T13:48:05.672Z,98598.99
2019-01-15T13:50:45.802Z,98604.60
2019-01-15T13:53:35.396Z,98600.03
2019-01-15T13:56:18.843Z,98603.59
2019-01-15T13:59:08.238Z,98593.00
2019-01-15T14:01:57.553Z,98604.60
2019-01-15T14:04:43.196Z,98602.58
2019-01-15T14:07:32.677Z,98615.34
2019-01-15T14:10:17.314Z,98605.27
2019-01-15T14:13:06.678Z,98606.42
2019-01-15T14:15:56.028Z,98607.95
2019-01-15T14:18:45.288Z,98612.03
2019-01-15T14:21:34.728Z,98605.92
2019-01-15T14:24:24.115Z,98602.59
2019-01-15T14:27:04.639Z,98601.47
2019-01-15T14:29:53.913Z,98596.49
2019-01-15T14:32:44.003Z,98593.16
2019-01-15T14:35:31.039Z,98595.33
2019-01-15T14:38:20.447Z,98600.17
2019-01-15T14:41:09.879Z,98592.53
2019-01-15T14:43:59.278Z,98588.83
2019-01-15T14:46:48.493Z,98591.98
2019-01-15T14:49:33.285Z,98590.19
2019-01-15T14:52:18.628Z,98589.79
2019-01-15T14:55:03.764Z,98594.89
2019-01-15T14:57:53.421Z,98597.81
2019-01-15T15:00:43.008Z,98599.09
2019-01-15T15:03:26.438Z,98584.32
2019-01-15T15:06:17.088Z,98590.92
2019-01-15T15:09:06.769Z,98585.94
2019-01-15T15:11:53.902Z,98577.78
2019-01-15T15:14:47.775Z,98590.52
2019-01-15T15:17:37.299Z,98599.45
2019-01-15T15:20:23.769Z,98593.33
2019-01-15T15:23:11.906Z,98601.47
2019-01-15T15:25:50.290Z,98594.34
2019-01-15T15:28:40.193Z,98597.39
2019-01-15T15:31:29.513Z,98587.19
2019-01-15T15:34:19.268Z,98609.12
2019-01-15T15:37:10.365Z,98598.17
2019-01-15T15:39:59.815Z,98594.58
2019-01-15T15:42:54.162Z,98592.81
2019-01-15T15:45:43.643Z,98582.84
2019-01-15T15:48:33.041Z,98591.74
2019-01-15T15:51:17.320Z,98588.41
2019-01-15T15:54:09.763Z,98577.69
2019-01-15T15:56:59.401Z,98589.42
2019-01-15T15:59:43.019Z,98587.77
2019-01-15T16:02:32.694Z,98577.05
2019-01-15T16:05:19.999Z,98575.14
2019-01-15T16:08:10.616Z,98578.59
2019-01-15T16:11:01.649Z,98579.75
2019-01-15T16:13:52.492Z,98578.96
2019-01-15T16:16:43.168Z,98581.77
2019-01-15T16:19:34.972Z,98580.00
2019-01-15T16:22:15.628Z,98571.08
2019-01-15T16:25:08.709Z,98566.73
2019-01-15T16:27:58.024Z,98568.91
2019-01-15T16:30:59.416Z,98551.73
2019-01-15T16:33:48.703Z,98557.09
2019-01-15T16:36:44.850Z,98553.27
2019-01-15T16:39:36.577Z,98545.62
2019-01-15T16:42:30.419Z,98540.11
2019-01-15T16:45:23.772Z,98536.44
2019-01-15T16:48:14.259Z,98526.50
2019-01-15T16:51:04.808Z,98512.47
2019-01-15T16:53:54.126Z,98524.55
2019-01-15T16:56:50.503Z,98510.94
2019-01-15T16:59:35.898Z,98512.44
2019-01-15T17:02:25.543Z,98504.67
2019-01-15T17:05:17.614Z,98513.19
2019-01-15T17:08:07.997Z,98501.23
2019-01-15T17:10:59.859Z,98510.27
2019-01-15T17:13:51.236Z,98499.27
2019-01-15T17:16:42.326Z,98502.99
2019-01-15T17:19:33.061Z,98493.09
2019-01-15T17:22:25.607Z,98497.89
2019-01-15T17:25:17.550Z,98482.11
2019-01-15T17:28:00.876Z,98485.03
2019-01-15T17:30:51.310Z,98480.05
2019-01-15T17:33:40.265Z,98474.83
2019-01-15T17:36:33.133Z,98469.36
2019-01-15T17:39:22.763Z,98468.98
2019-01-15T17:42:17.640Z,98463.99
2019-01-15T17:45:07.156Z,98455.45
2019-01-15T17:47:55.447Z,98448.92
2019-01-15T17:50:45.041Z,98449.70
2019-01-15T17:53:34.479Z,98454.50
2019-01-15T17:56:19.771Z,98452.48
2019-01-15T17:59:00.436Z,98444.04
2019-01-15T18:01:49.908Z,98443.40
2019-01-15T18:04:42.313Z,98436.65
2019-01-15T18:07:27.064Z,98446.06
2019-01-15T18:10:16.324Z,98443.73
2019-01-15T18:13:08.118Z,98446.17
2019-01-15T18:15:53.492Z,98448.79
2019-01-15T18:18:50.358Z,98440.88
2019-01-15T18:21:41.298Z,98430.30
2019-01-15T18:24:27.354Z,98415.37
2019-01-15T18:27:09.071Z,98417.21
2019-01-15T18:30:00.856Z,98414.66
2019-01-15T18:32:58.137Z,98430.83
2019-01-15T18:35:52.004Z,98432.84
2019-01-15T18:38:35.515Z,98402.17
2019-01-15T18:41:27.500Z,98413.38
2019-01-15T18:44:18.854Z,98413.38
2019-01-15T18:47:12.443Z,98405.95
2019-01-15T18:50:05.521Z,98396.02
2019-01-15T18:52:58.768Z,98394.48
2019-01-15T18:55:49.866Z,98403.14
2019-01-15T18:58:43.353Z,98384.48
2019-01-15T19:01:37.718Z,98387.78
2019-01-15T19:04:25.313Z,98388.64
2019-01-15T19:07:17.818Z,98391.83
2019-01-15T19:10:10.790Z,98393.57
2019-01-15T19:13:01.994Z,98392.29
2019-01-15T19:16:00.266Z,98388.89
2019-01-15T19:18:51.428Z,98383.42
2019-01-15T19:21:40.149Z,98377.98
2019-01-15T19:24:47.424Z,98369.64
2019-01-15T19:27:40.378Z,98381.66
2019-01-15T19:30:34.587Z,98371.81
2019-01-15T19:33:26.423Z,98380.69
2019-01-15T19:36:20.088Z,98369.20
2019-01-15T19:39:13.514Z,98361.61
2019-01-15T19:42:04.427Z,98347.69
2019-01-15T19:45:03.306Z,98365.00
2019-01-15T19:47:54.795Z,98375.22
2019-01-15T19:50:36.298Z,98365.21
2019-01-15T19:53:25.840Z,98365.56
2019-01-15T19:56:08.884Z,98359.18
2019-01-15T19:58:59.212Z,98368.84
2019-01-15T20:01:46.963Z,98370.39
2019-01-15T20:04:41.871Z,98357.80
2019-01-15T20:07:25.492Z,98357.45
2019-01-15T20:10:20.249Z,98368.88
2019-01-15T20:13:01.518Z,98361.91
2019-01-15T20:15:59.202Z,98373.36
2019-01-15T20:18:50.399Z,98372.95
2019-01-15T20:21:58.941Z,98358.82
2019-01-15T20:24:48.489Z,98363.86
2019-01-15T20:27:39.380Z,98358.56
2019-01-15T20:30:26.692Z,98364.78
2019-01-15T20:33:23.327Z,98361.11
2019-01-15T20:36:12.157Z,98363.77
2019-01-15T20:38:54.350Z,98369.89
2019-01-15T20:41:36.167Z,98364.41
2019-01-15T20:44:29.502Z,98360.78
2019-01-15T20:47:25.804Z,98359.04
2019-01-15T20:50:19.132Z,98354.23
2019-01-15T20:53:09.891Z,98354.64
2019-01-15T20:56:00.578Z,98358.30
2019-01-15T20:58:56.567Z,98366.26
2019-01-15T21:01:46.473Z,98367.73
2019-01-15T21:04:40.278Z,98354.19
2019-01-15T21:07:32.700Z,98356.47
2019-01-15T21:10:15.812Z,98352.73
2019-01-15T21:13:10.380Z,98358.04
2019-01-15T21:15:59.874Z,98365.75
2019-01-15T21:18:37.678Z,98368.98
2019-01-15T21:21:27.623Z,98358.09
2019-01-15T21:24:14.766Z,98348.42
2019-01-15T21:27:07.582Z,98352.27
2019-01-15T21:29:50.942Z,98350.32
2019-01-15T21:32:41.500Z,98346.89
2019-01-15T21:35:34.282Z,98348.75
2019-01-15T21:38:19.216Z,98359.50
2019-01-15T21:41:08.963Z,98360.78
2019-01-15T21:43:59.509Z,98348.17
2019-01-15T21:46:38.924Z,98373.67
2019-01-15T21:49:28.693Z,98369.16
2019-01-15T21:52:13.584Z,98366.60
2019-01-15T21:55:05.767Z,98367.97
2019-01-15T21:57:55.303Z,98358.62
2019-01-15T22:00:44.925Z,98366.80
2019-01-15T22:03:35.978Z,98373.28
2019-01-15T22:06:25.773Z,98358.62
2019-01-15T22:09:15.162Z,98355.48
2019-01-15T22:12:04.483Z,98351.94
2019-01-15T22:14:50.478Z,98354.40
2019-01-15T22:17:39.742Z,98348.77
2019-01-15T22:20:29.818Z,98349.08
2019-01-15T22:23:19.238Z,98356.56
2019-01-15T22:26:08.856Z,98352.81
2019-01-15T22:28:57.489Z,98356.94
2019-01-15T22:31:36.927Z,98351.14
2019-01-15T22:34:26.347Z,98316.56
2019-01-15T22:37:09.161Z,98358.41
2019-01-15T22:39:58.173Z,98358.12
2019-01-15T22:42:47.548Z,98359.59
2019-01-15T22:45:34.223Z,98361.38
2019-01-15T22:48:23.617Z,98367.68
2019-01-15T22:51:13.023Z,98376.16
2019-01-15T22:54:02.437Z,98370.63
2019-01-15T22:56:51.833Z,98374.56
2019-01-15T22:59:37.340Z,98361.97
2019-01-15T23:02:26.727Z,98364.02
2019-01-15T23:05:16.138Z,98373.09
2019-01-15T23:08:05.609Z,98377.71
2019-01-15T23:10:54.953Z,98375.24
2019-01-15T23:13:36.038Z,98387.96
2019-01-15T23:16:19.243Z,98387.48
2019-01-15T23:19:00.426Z,98387.96
2019-01-15T23:21:45.982Z,98384.81
2019-01-15T23:24:35.344Z,98386.28
2019-01-15T23:27:25.096Z,98389.73
2019-01-15T23:30:05.743Z,98393.20
2019-01-15T23:32:55.167Z,98386.47
2019-01-15T23:35:44.550Z,98404.41
2019-01-15T23:38:34.027Z,98410.52
2019-01-15T23:41:23.642Z,98400.87
2019-01-15T23:44:12.947Z,98398.88
2019-01-15T23:47:02.443Z,98406.56
2019-01-15T23:49:51.763Z,98403.44
2019-01-15T23:52:33.287Z,98404.92
2019-01-15T23:55:17.178Z,98397.41
2019-01-15T23:57:59.532Z,98409.23
